Wetter EDVM 211750Z 25009KT 17/10 Q1018